Terminal Aerodrome Forecast
Issued by NWS

Current Version | Previous Version | Graphics & Text | Print | Product List | Glossary On
Versions: 1 2 3 4 5 6 7 8 9 10 11 12 13 14 15 16 17 18 19
000
FTUS41 KILN 292300
TAFLCK
TAF
KLCK 292340Z 3000/3024 12005KT P6SM SCT250
     FM300800 15004KT P6SM SCT050 BKN120
     FM301600 21010G15KT P6SM SCT050 BKN200
     FM302200 21009KT P6SM BKN060 OVC120=

USA.gov is the U.S. government's official web portal to all federal, state and local government web resources and services.